Time;durP1;ratioP1;P1;durP2;ratioP2;P2;SDS_P1;SDS_P2;PMS_P1;PMS_P2;Temp;Humidity;BMP_temperature;BMP_pressure;BME280_temperature;BME280_humidity;BME280_pressure;Samples;Min_cycle;Max_cycle;Signal;HPM_P1;HPM_P2
2022/12/12 00:00:25;;;;;;;4.40;3.00;;;;;;;1.89;97.07;97679.17;106793;1303;136725;-50
2022/12/12 00:02:52;;;;;;;3.80;3.20;;;;;;;1.89;97.02;97682.38;106775;1303;22181;-49
2022/12/12 00:05:19;;;;;;;;;;;;;;;1.87;96.79;97687.69;106687;1303;137546;-50
2022/12/12 00:07:46;;;;;;;6.70;3.00;;;;;;;1.86;96.81;97686.81;106822;1302;22231;-50
2022/12/12 00:10:13;;;;;;;;;;;;;;;1.84;96.86;97687.23;106707;1302;139846;-51
2022/12/12 00:12:39;;;;;;;3.90;3.00;;;;;;;1.82;96.74;97688.10;106829;1302;22241;-49
2022/12/12 00:15:06;;;;;;;;;;;;;;;1.81;96.67;97690.27;106805;1302;23514;-50
2022/12/12 00:17:33;;;;;;;3.20;2.80;;;;;;;1.76;96.45;97689.61;106707;1302;124100;-50
2022/12/12 00:20:00;;;;;;;3.80;2.90;;;;;;;1.75;96.65;97691.58;106780;1302;22227;-50
2022/12/12 00:22:27;;;;;;;;;;;;;;;1.76;96.82;97692.52;106718;1303;137918;-50
2022/12/12 00:24:53;;;;;;;3.50;2.60;;;;;;;1.78;96.98;97689.11;106784;1302;23028;-50
2022/12/12 00:27:20;;;;;;;4.70;3.20;;;;;;;1.81;96.99;97688.18;106875;1292;22249;-50
2022/12/12 00:29:52;;;;;;;4.80;3.30;;;;;;;1.81;97.21;97686.27;106780;1300;137074;-50
2022/12/12 00:32:18;;;;;;;5.20;3.80;;;;;;;1.83;97.16;97692.09;106801;1294;22248;-50
2022/12/12 00:34:45;;;;;;;5.50;3.10;;;;;;;1.81;96.81;97707.04;106682;1302;137305;-50
2022/12/12 00:37:12;;;;;;;;;;;;;;;1.79;96.65;97717.96;103077;1291;23991;-49
2022/12/12 00:39:40;;;;;;;6.00;4.10;;;;;;;1.77;96.56;97729.69;106515;1310;23280;-50
2022/12/12 00:42:07;;;;;;;7.30;5.50;;;;;;;1.77;96.71;97729.63;106713;1303;138733;-50
2022/12/12 00:44:34;;;;;;;5.90;4.70;;;;;;;1.79;96.72;97730.10;106805;1302;22739;-50
2022/12/12 00:47:01;;;;;;;5.20;4.30;;;;;;;1.81;96.72;97729.70;106693;1303;137492;-50
2022/12/12 00:49:29;;;;;;;5.40;4.30;;;;;;;1.80;96.57;97728.06;106825;1299;22797;-50
2022/12/12 00:51:55;;;;;;;6.60;4.70;;;;;;;1.79;96.58;97720.98;106816;1293;22108;-50
2022/12/12 00:54:22;;;;;;;8.90;6.60;;;;;;;1.76;96.22;97720.65;106679;1303;136809;-50
2022/12/12 00:56:49;;;;;;;;;;;;;;;1.68;95.82;97717.65;106836;1303;22390;-50
2022/12/12 00:59:16;;;;;;;7.70;5.10;;;;;;;1.62;95.63;97718.66;106800;1295;123407;-50
2022/12/12 01:01:43;;;;;;;5.60;4.40;;;;;;;1.56;95.58;97717.77;106886;1303;22132;-49
2022/12/12 01:04:10;;;;;;;5.50;4.60;;;;;;;1.52;95.50;97713.20;106709;1288;137615;-50
2022/12/12 01:06:36;;;;;;;4.10;3.60;;;;;;;1.48;95.37;97714.73;106794;1302;22059;-50
2022/12/12 01:09:03;;;;;;;5.60;4.20;;;;;;;1.43;95.35;97715.31;106801;1302;22130;-50
2022/12/12 01:11:30;;;;;;;6.40;4.00;;;;;;;1.38;95.18;97715.65;106782;1295;139954;-50
2022/12/12 01:13:56;;;;;;;5.10;4.20;;;;;;;1.35;95.34;97717.27;106915;1303;23101;-50
2022/12/12 01:16:23;;;;;;;9.10;4.30;;;;;;;1.33;95.31;97715.13;106814;1303;137778;-52
2022/12/12 01:18:50;;;;;;;5.40;4.30;;;;;;;1.32;95.46;97717.84;106892;1302;22136;-50
2022/12/12 01:21:17;;;;;;;4.30;3.90;;;;;;;1.32;95.68;97718.33;106730;1305;23025;-50
2022/12/12 01:23:44;;;;;;;7.30;4.60;;;;;;;1.31;95.78;97713.96;106694;1302;137928;-50
2022/12/12 01:26:13;;;;;;;8.20;4.60;;;;;;;1.32;95.82;97716.51;106795;1302;22112;-50
2022/12/12 01:28:40;;;;;;;3.70;3.20;;;;;;;1.33;96.01;97716.70;106796;1303;138561;-50
2022/12/12 01:31:06;;;;;;;;;;;;;;;1.33;96.05;97729.90;106866;1303;22419;-50
2022/12/12 01:33:33;;;;;;;3.80;3.20;;;;;;;1.33;96.11;97731.14;106789;1302;22222;-49
2022/12/12 01:36:00;;;;;;;5.30;3.60;;;;;;;1.29;96.07;97739.80;106814;1287;138443;-50
2022/12/12 01:38:26;;;;;;;4.50;3.40;;;;;;;1.32;96.00;97744.58;106805;1295;22236;-49
2022/12/12 01:40:53;;;;;;;4.90;3.80;;;;;;;1.33;96.12;97755.20;106808;1294;138457;-50
2022/12/12 01:43:21;;;;;;;4.10;3.20;;;;;;;1.33;96.11;97749.96;106792;1294;23375;-50
2022/12/12 01:46:01;;;;;;;4.20;3.60;;;;;;;1.34;96.08;97738.71;106882;1303;22877;-50
2022/12/12 01:48:30;;;;;;;4.70;4.20;;;;;;;1.34;96.16;97739.95;106678;1302;138469;-50
2022/12/12 01:50:58;;;;;;;5.80;4.20;;;;;;;1.34;96.13;97728.40;106625;1303;22127;-50
2022/12/12 01:53:25;;;;;;;5.10;3.80;;;;;;;1.33;96.17;97740.92;106736;1294;137795;-50
2022/12/12 01:55:52;;;;;;;;;;;;;;;1.33;96.29;97736.17;106762;1302;22334;-50
2022/12/12 01:58:18;;;;;;;4.70;4.10;;;;;;;1.35;96.51;97735.84;106707;1294;124181;-50
2022/12/12 02:00:45;;;;;;;5.60;4.20;;;;;;;1.33;96.50;97735.41;106761;1302;23390;-50
2022/12/12 02:03:12;;;;;;;;;;;;;;;1.31;96.53;97739.77;106794;1302;22378;-50
2022/12/12 02:05:41;;;;;;;4.80;3.50;;;;;;;1.30;96.45;97737.94;106672;1294;124208;-50
2022/12/12 02:08:07;;;;;;;5.00;3.80;;;;;;;1.28;96.45;97735.94;106798;1303;22228;-50
2022/12/12 02:10:34;;;;;;;5.00;4.30;;;;;;;1.27;96.51;97737.79;106637;1302;138614;-50
2022/12/12 02:13:03;;;;;;;6.20;3.60;;;;;;;1.25;96.56;97743.55;106791;1303;22168;-50
2022/12/12 02:15:39;;;;;;;4.90;3.60;;;;;;;1.26;96.55;97738.85;106767;1302;23039;-50
2022/12/12 02:18:18;;;;;;;5.80;4.50;;;;;;;1.22;96.64;97728.05;106617;1303;138480;-50
2022/12/12 02:21:06;;;;;;;4.90;3.40;;;;;;;1.24;96.72;97712.26;106821;1302;22098;-50
2022/12/12 02:24:10;;;;;;;4.00;3.20;;;;;;;1.17;96.71;97701.23;106723;1302;137818;-50
2022/12/12 02:27:08;;;;;;;7.20;4.20;;;;;;;1.19;96.67;97708.73;106801;1303;22601;-49
2022/12/12 02:29:40;;;;;;;5.60;3.70;;;;;;;1.16;96.67;97742.94;106661;1302;137675;-49
2022/12/12 02:32:20;;;;;;;6.70;3.60;;;;;;;1.15;96.76;97728.95;106759;1302;22216;-50
2022/12/12 02:35:22;;;;;;;4.70;3.90;;;;;;;1.14;96.83;97671.16;106661;1298;139502;-50
2022/12/12 02:38:04;;;;;;;5.90;5.00;;;;;;;1.06;96.28;97633.75;106371;1307;22285;-50
2022/12/12 02:40:42;;;;;;;4.70;3.70;;;;;;;1.00;96.28;97653.49;106324;1297;138596;-50
2022/12/12 02:43:29;;;;;;;5.80;4.30;;;;;;;0.98;96.54;97677.17;106334;1300;22186;-49
2022/12/12 02:45:58;;;;;;;4.40;3.90;;;;;;;0.97;96.81;97700.27;106345;1306;22633;-50
2022/12/12 02:48:36;;;;;;;5.90;4.10;;;;;;;0.97;96.84;97730.30;106220;1307;138593;-50
2022/12/12 02:51:04;;;;;;;6.40;4.20;;;;;;;0.98;97.00;97734.60;106356;1306;22254;-50
2022/12/12 02:53:30;;;;;;;4.20;3.60;;;;;;;1.00;97.08;97722.94;106253;1300;137547;-50
2022/12/12 02:56:41;;;;;;;5.40;4.20;;;;;;;1.01;97.21;97733.09;106357;1309;22950;-50
2022/12/12 02:59:07;;;;;;;5.60;4.00;;;;;;;1.02;97.24;97736.64;105738;1313;137886;-50
2022/12/12 03:01:55;;;;;;;6.00;4.70;;;;;;;1.04;97.36;97727.14;105657;1313;22184;-50
2022/12/12 03:07:48;;;;;;;5.20;3.70;;;;;;;1.05;97.28;97707.36;105267;1320;24343;-49
2022/12/12 03:10:31;;;;;;;6.00;4.60;;;;;;;1.00;97.01;97710.98;105140;1312;139009;-50
2022/12/12 03:13:20;;;;;;;6.60;4.70;;;;;;;0.96;97.01;97735.46;105272;1319;22277;-50
2022/12/12 03:15:53;;;;;;;7.50;5.10;;;;;;;0.91;96.91;97744.81;105812;1311;22877;-50
2022/12/12 03:18:25;;;;;;;6.10;4.80;;;;;;;0.87;96.89;97748.85;105842;1313;138068;-50
2022/12/12 03:21:16;;;;;;;7.00;4.90;;;;;;;0.83;97.00;97754.27;105849;1314;23069;-50
2022/12/12 03:23:44;;;;;;;6.20;4.50;;;;;;;0.79;96.86;97751.71;105707;1314;138094;-50
2022/12/12 03:26:13;;;;;;;7.40;4.70;;;;;;;0.75;96.86;97749.85;105690;1299;23227;-50
2022/12/12 03:29:04;;;;;;;9.40;6.00;;;;;;;0.71;96.66;97764.05;105506;1313;139003;-50
2022/12/12 03:31:31;;;;;;;6.70;5.00;;;;;;;0.71;96.75;97764.48;105574;1309;22174;-50
2022/12/12 03:34:07;;;;;;;6.10;4.70;;;;;;;0.68;96.75;97753.53;105788;1314;22338;-50
2022/12/12 03:36:44;;;;;;;7.90;5.50;;;;;;;0.67;96.67;97759.69;106049;1303;22156;-50
2022/12/12 03:39:44;;;;;;;6.50;4.50;;;;;;;0.64;96.46;97752.52;106202;1303;22898;-51
2022/12/12 03:42:19;;;;;;;7.30;4.60;;;;;;;0.60;96.39;97751.06;105391;1316;137659;-50
2022/12/12 03:44:48;;;;;;;7.30;4.90;;;;;;;0.59;96.52;97766.89;105881;1308;22266;-50
2022/12/12 03:47:20;;;;;;;8.50;5.60;;;;;;;0.57;96.45;97778.98;105977;1311;138998;-51
2022/12/12 03:50:10;;;;;;;9.00;6.10;;;;;;;0.54;96.44;97787.86;106149;1311;22252;-50
2022/12/12 03:52:43;;;;;;;8.70;5.40;;;;;;;0.50;96.36;97781.35;106037;1308;137651;-50
2022/12/12 03:55:18;;;;;;;8.20;5.40;;;;;;;0.52;96.34;97784.45;106020;1309;22150;-50
2022/12/12 03:57:51;;;;;;;8.30;5.40;;;;;;;0.51;96.53;97785.65;106150;1309;22340;-50
2022/12/12 04:00:17;;;;;;;7.90;5.00;;;;;;;0.52;96.78;97796.14;106003;1303;138896;-50
2022/12/12 04:03:01;;;;;;;6.40;5.20;;;;;;;0.53;96.77;97799.74;106309;1308;22142;-50
2022/12/12 04:05:34;;;;;;;8.10;5.20;;;;;;;0.51;96.58;97793.33;106043;1309;137027;-50
2022/12/12 04:08:04;;;;;;;7.90;5.90;;;;;;;0.48;96.42;97786.77;106152;1308;22179;-50
2022/12/12 04:13:32;;;;;;;8.20;5.50;;;;;;;0.36;95.64;97799.05;105959;1308;22141;-50
2022/12/12 04:16:03;;;;;;;7.70;6.00;;;;;;;0.30;95.83;97786.81;106088;1309;22271;-50
2022/12/12 04:18:48;;;;;;;8.60;6.10;;;;;;;0.27;95.85;97781.30;106296;1303;138487;-50
2022/12/12 04:24:39;;;;;;;8.30;5.90;;;;;;;0.18;95.92;97783.92;106658;1302;138804;-50
2022/12/12 04:27:23;;;;;;;7.70;6.00;;;;;;;0.18;96.23;97773.79;106780;1302;22340;-50
2022/12/12 04:30:03;;;;;;;8.20;6.00;;;;;;;0.16;96.38;97780.88;106490;1300;272519;-50
2022/12/12 04:33:13;;;;;;;9.10;7.00;;;;;;;0.14;96.29;97790.55;99676;1318;544879;-49
2022/12/12 04:35:44;;;;;;;9.10;6.40;;;;;;;0.10;96.09;97799.98;101076;1309;137472;-51
2022/12/12 04:38:21;;;;;;;10.90;7.70;;;;;;;0.10;96.15;97816.63;101243;1323;25453;-49
2022/12/12 04:40:50;;;;;;;10.00;6.90;;;;;;;0.09;96.63;97809.48;102198;1323;137317;-50
2022/12/12 04:43:19;;;;;;;10.60;6.70;;;;;;;0.09;96.65;97807.98;105668;1317;22130;-50
2022/12/12 04:45:49;;;;;;;11.60;7.30;;;;;;;0.11;96.95;97802.09;105548;1316;159265;-51
2022/12/12 04:48:18;;;;;;;9.50;6.60;;;;;;;0.10;96.88;97797.58;105899;1314;137336;-50
2022/12/12 04:50:47;;;;;;;10.00;7.00;;;;;;;0.09;96.64;97788.96;105878;1313;22352;-50
2022/12/12 04:53:15;;;;;;;10.10;6.80;;;;;;;0.07;96.93;97780.91;105925;1316;137451;-50
2022/12/12 04:55:49;;;;;;;8.80;5.90;;;;;;;0.06;96.74;97776.06;106052;1312;22237;-51
2022/12/12 04:58:16;;;;;;;7.80;5.70;;;;;;;0.05;96.87;97778.06;105975;1312;138406;-50
2022/12/12 05:00:58;;;;;;;8.50;6.30;;;;;;;0.04;96.73;97785.58;106123;1312;22130;-51
2022/12/12 05:03:46;;;;;;;9.40;7.10;;;;;;;0.01;96.77;97798.42;105877;1313;22309;-50
2022/12/12 05:06:13;;;;;;;;;;;;;;;0.03;97.00;97810.55;103773;1315;136992;-54
2022/12/12 05:08:42;;;;;;;12.20;7.00;;;;;;;0.04;97.13;97812.73;101464;1308;24098;-54
2022/12/12 05:11:09;;;;;;;14.50;9.10;;;;;;;0.04;97.33;97814.56;101394;1311;136989;-54
2022/12/12 05:13:36;;;;;;;;;;;;;;;0.06;97.21;97815.77;102199;1290;24546;-54
2022/12/12 05:16:09;;;;;;;19.90;10.50;;;;;;;0.06;97.40;97815.02;102236;1310;23088;-54
2022/12/12 05:18:36;;;;;;;18.60;9.60;;;;;;;0.02;97.22;97825.02;106731;1296;22149;-54
2022/12/12 05:21:03;;;;;;;15.80;9.80;;;;;;;-0.02;97.22;97833.59;106825;1302;22153;-54
2022/12/12 05:23:29;;;;;;;;;;;;;;;-0.05;97.27;97835.73;106652;1303;137561;-54
2022/12/12 05:26:06;;;;;;;31.10;14.90;;;;;;;-0.03;97.57;97837.06;106774;1303;22273;-54
2022/12/12 05:28:33;;;;;;;25.20;13.30;;;;;;;-0.02;97.63;97832.23;106634;1303;138713;-54
2022/12/12 05:30:59;;;;;;;21.10;12.50;;;;;;;-0.03;97.40;97832.95;106686;1294;22313;-55
2022/12/12 05:33:26;;;;;;;32.00;16.50;;;;;;;-0.04;97.45;97835.84;106654;1303;22279;-56
2022/12/12 05:35:53;;;;;;;31.10;16.40;;;;;;;-0.06;97.47;97839.55;106767;1302;137943;-55
2022/12/12 05:38:20;;;;;;;33.80;15.80;;;;;;;-0.08;97.36;97843.98;106892;1299;23870;-54
2022/12/12 05:40:47;;;;;;;48.40;21.20;;;;;;;-0.09;97.55;97850.91;106766;1303;138906;-50
2022/12/12 05:43:14;;;;;;;47.40;20.00;;;;;;;-0.09;97.59;97856.92;106916;1300;22121;-51
2022/12/12 05:45:41;;;;;;;31.10;15.70;;;;;;;-0.11;97.60;97862.13;106904;1302;22141;-51
2022/12/12 05:48:07;;;;;;;40.80;17.70;;;;;;;-0.11;97.59;97872.14;106739;1303;137722;-50
2022/12/12 05:50:34;;;;;;;41.80;19.30;;;;;;;-0.13;97.60;97874.27;106839;1303;22237;-50
2022/12/12 05:53:01;;;;;;;;;;;;;;;-0.14;97.47;97877.88;106730;1303;137893;-50
2022/12/12 05:55:28;;;;;;;33.40;18.30;;;;;;;-0.14;97.63;97882.11;106798;1303;22236;-50
2022/12/12 05:57:54;;;;;;;25.20;14.00;;;;;;;-0.12;97.77;97882.00;106878;1301;22481;-50
2022/12/12 06:00:21;;;;;;;16.00;10.10;;;;;;;-0.11;97.76;97881.12;106842;1300;138828;-50
2022/12/12 06:02:48;;;;;;;;;;;;;;;-0.12;97.63;97885.80;106804;1302;22495;-50
2022/12/12 06:05:15;;;;;;;10.50;6.70;;;;;;;-0.20;97.04;97883.78;106766;1287;123512;-51
2022/12/12 06:07:42;;;;;;;11.60;7.80;;;;;;;-0.27;97.27;97886.06;106808;1303;22128;-50
2022/12/12 06:10:09;;;;;;;9.90;7.20;;;;;;;-0.31;97.51;97890.30;106767;1295;137933;-54
2022/12/12 06:12:35;;;;;;;;;;;;;;;-0.32;97.48;97898.84;106828;1303;22465;-50
2022/12/12 06:15:03;;;;;;;14.00;7.80;;;;;;;-0.32;97.50;97899.70;106862;1298;22238;-51
2022/12/12 06:17:29;;;;;;;29.70;14.20;;;;;;;-0.32;97.61;97898.95;102351;1291;137704;-50
2022/12/12 06:19:59;;;;;;;30.70;15.70;;;;;;;-0.32;97.69;97903.83;102289;1287;22540;-50
2022/12/12 06:22:26;;;;;;;17.40;10.80;;;;;;;-0.38;97.56;97903.14;102215;1302;139678;-50
2022/12/12 06:24:52;;;;;;;19.40;11.00;;;;;;;-0.43;97.48;97910.38;102308;1294;25361;-50
2022/12/12 06:27:19;;;;;;;16.10;10.50;;;;;;;-0.46;97.51;97916.36;102274;1295;22601;-50
2022/12/12 06:29:46;;;;;;;;;;;;;;;-0.50;97.57;97918.70;102262;1291;138649;-50
2022/12/12 06:32:13;;;;;;;14.40;9.10;;;;;;;-0.54;97.68;97920.40;102344;1294;23938;-50
2022/12/12 06:34:40;;;;;;;12.30;8.20;;;;;;;-0.57;97.43;97915.98;102295;1295;137786;-51
2022/12/12 06:37:07;;;;;;;16.50;8.40;;;;;;;-0.62;97.55;97919.45;102323;1294;23076;-51
2022/12/12 06:39:41;;;;;;;11.20;6.90;;;;;;;-0.66;97.52;97917.40;106797;1300;23162;-51
2022/12/12 06:42:07;;;;;;;;;;;;;;;-0.71;97.46;97924.33;106724;1301;139500;-51
2022/12/12 06:44:34;;;;;;;9.90;6.80;;;;;;;-0.76;97.28;97925.31;106722;1303;22126;-52
2022/12/12 06:47:01;;;;;;;12.10;7.50;;;;;;;-0.74;97.37;97931.63;106750;1295;137553;-51
2022/12/12 06:49:27;;;;;;;11.80;8.00;;;;;;;-0.74;97.61;97942.02;106939;1303;22219;-51
2022/12/12 06:51:54;;;;;;;14.00;8.30;;;;;;;-0.72;97.51;97947.45;106935;1303;22398;-51
2022/12/12 06:54:21;;;;;;;21.20;12.70;;;;;;;-0.73;97.23;97955.30;106795;1300;139415;-50
2022/12/12 06:56:48;;;;;;;18.50;10.80;;;;;;;-0.76;97.14;97958.55;106954;1300;22187;-52
2022/12/12 06:59:15;;;;;;;15.60;9.10;;;;;;;-0.77;97.14;97956.95;106770;1303;138021;-51
2022/12/12 07:01:42;;;;;;;15.70;9.90;;;;;;;-0.78;97.38;97953.50;106887;1303;22893;-51
2022/12/12 07:04:12;;;;;;;16.10;8.90;;;;;;;-0.77;97.57;97960.04;106910;1293;22147;-51
2022/12/12 07:06:39;;;;;;;15.40;10.40;;;;;;;-0.75;97.55;97961.34;106784;1281;22116;-51
2022/12/12 07:09:07;;;;;;;;;;;;;;;-0.74;97.48;97947.90;106881;1303;22389;-51
2022/12/12 07:11:33;;;;;;;18.50;10.80;;;;;;;-0.72;97.64;97950.71;106731;1301;124933;-51
2022/12/12 07:14:02;;;;;;;15.30;8.60;;;;;;;-0.68;97.77;97952.27;106869;1303;23221;-51
2022/12/12 07:16:29;;;;;;;14.10;9.60;;;;;;;-0.65;97.70;97946.68;104277;1286;137776;-51
2022/12/12 07:18:56;;;;;;;17.10;10.50;;;;;;;-0.62;97.86;97948.75;102377;1295;24318;-51
2022/12/12 07:21:22;;;;;;;19.00;10.60;;;;;;;-0.59;97.99;97951.30;102379;1286;22942;-51
2022/12/12 07:23:49;;;;;;;;;;;;;;;-0.56;97.98;97956.77;102337;1278;138544;-50
2022/12/12 07:26:18;;;;;;;17.10;9.90;;;;;;;-0.53;97.96;97953.97;102457;1293;22650;-51
2022/12/12 07:28:45;;;;;;;16.20;10.00;;;;;;;-0.52;97.86;97949.67;106762;1295;138888;-51
2022/12/12 07:31:12;;;;;;;;;;;;;;;-0.53;97.58;97955.04;106881;1303;22387;-51
2022/12/12 07:33:40;;;;;;;14.90;10.10;;;;;;;-0.54;97.35;97963.58;106797;1301;22331;-51
2022/12/12 07:36:11;;;;;;;23.10;13.60;;;;;;;-0.55;97.22;97973.38;106777;1294;137432;-51
2022/12/12 07:38:38;;;;;;;17.90;11.00;;;;;;;-0.55;97.17;97982.10;106781;1291;22168;-51
2022/12/12 07:41:07;;;;;;;22.70;12.40;;;;;;;-0.55;97.02;97989.34;106683;1295;138403;-51
2022/12/12 07:43:35;;;;;;;21.80;11.00;;;;;;;-0.54;96.60;97998.63;106754;1302;22090;-51
2022/12/12 07:46:09;;;;;;;20.20;12.80;;;;;;;-0.52;96.33;97994.34;106813;1303;22121;-51
2022/12/12 07:48:36;;;;;;;23.60;12.60;;;;;;;-0.55;95.68;97994.73;106770;1294;22158;-54
2022/12/12 07:51:02;;;;;;;41.00;23.60;;;;;;;-0.55;95.88;98002.10;106763;1303;22182;-52
2022/12/12 07:53:29;;;;;;;;;;;;;;;-0.53;95.95;98005.00;106674;1303;137905;-51
2022/12/12 07:55:56;;;;;;;22.30;12.90;;;;;;;-0.50;95.85;98008.30;106910;1303;22126;-52
2022/12/12 07:58:23;;;;;;;19.40;11.70;;;;;;;-0.47;95.71;98019.17;106826;1301;137850;-51
2022/12/12 08:00:49;;;;;;;;;;;;;;;-0.42;95.81;98017.73;106785;1303;22489;-52
2022/12/12 08:03:16;;;;;;;17.40;11.10;;;;;;;-0.39;95.46;98015.33;106885;1303;22526;-52
2022/12/12 08:05:43;;;;;;;21.10;13.80;;;;;;;-0.35;95.41;98011.79;106668;1302;138003;-53
2022/12/12 08:08:10;;;;;;;20.90;12.90;;;;;;;-0.34;95.24;98009.02;106788;1302;22406;-52
2022/12/12 08:10:38;;;;;;;20.10;12.20;;;;;;;-0.34;95.24;98015.35;106715;1300;138894;-52
2022/12/12 08:13:05;;;;;;;20.50;12.70;;;;;;;-0.31;95.48;98016.93;106777;1303;22146;-52
2022/12/12 08:15:32;;;;;;;22.10;13.80;;;;;;;-0.29;95.20;98023.48;106805;1302;22120;-52
2022/12/12 08:17:59;;;;;;;;;;;;;;;-0.27;95.28;98017.94;106862;1284;139298;-52
2022/12/12 08:20:25;;;;;;;24.50;15.10;;;;;;;-0.23;95.09;98020.15;106901;1303;23075;-52
2022/12/12 08:22:52;;;;;;;23.60;14.50;;;;;;;-0.20;95.10;98019.05;106818;1300;138136;-52
2022/12/12 08:25:19;;;;;;;21.70;13.80;;;;;;;-0.21;94.71;98022.09;106802;1295;22139;-52
2022/12/12 08:27:46;;;;;;;23.00;14.40;;;;;;;-0.20;94.76;98023.54;106809;1303;22084;-52
2022/12/12 08:30:12;;;;;;;;;;;;;;;-0.20;94.65;98027.27;106809;1293;138631;-52
2022/12/12 08:32:39;;;;;;;29.00;15.60;;;;;;;-0.19;94.45;98033.73;106722;1294;22163;-52
2022/12/12 08:35:06;;;;;;;35.20;20.30;;;;;;;-0.20;94.54;98006.38;106650;1294;137854;-52
2022/12/12 08:37:33;;;;;;;32.60;17.70;;;;;;;-0.15;94.75;98017.81;106647;1301;23340;-52
2022/12/12 08:40:00;;;;;;;21.60;12.90;;;;;;;-0.12;94.43;98025.54;106736;1303;22907;-52
2022/12/12 08:42:27;;;;;;;26.50;15.40;;;;;;;-0.10;94.38;98025.37;106652;1302;139365;-52
2022/12/12 08:44:53;;;;;;;31.10;16.70;;;;;;;-0.11;93.93;98028.13;106726;1302;22130;-52
2022/12/12 08:47:20;;;;;;;30.50;17.10;;;;;;;-0.10;93.91;98039.12;102590;1288;137600;-51
2022/12/12 08:49:47;;;;;;;;;;;;;;;-0.09;93.81;98037.63;102345;1310;26664;-51
2022/12/12 08:52:14;;;;;;;32.30;18.00;;;;;;;-0.06;93.91;98042.09;102161;1289;123737;-52
2022/12/12 08:54:40;;;;;;;;;;;;;;;-0.07;93.82;98039.83;102311;1288;26194;-51
2022/12/12 08:57:07;;;;;;;43.80;23.60;;;;;;;-0.12;93.32;98038.44;102299;1288;22507;-51
2022/12/12 08:59:34;;;;;;;32.90;19.50;;;;;;;-0.19;93.02;98036.58;102150;1305;138668;-51
2022/12/12 09:02:01;;;;;;;52.30;27.50;;;;;;;-0.25;92.58;98045.50;102345;1295;25381;-51
2022/12/12 09:04:28;;;;;;;43.00;24.10;;;;;;;-0.31;92.42;98041.33;102342;1295;138793;-51
2022/12/12 09:06:55;;;;;;;34.70;19.50;;;;;;;-0.35;92.53;98038.00;102337;1284;22721;-51
2022/12/12 09:09:21;;;;;;;;;;;;;;;-0.40;92.44;98036.44;102293;1295;24328;-51
2022/12/12 09:11:48;;;;;;;32.00;17.90;;;;;;;-0.45;92.23;98036.19;102115;1309;124069;-52
2022/12/12 09:14:15;;;;;;;;;;;;;;;-0.52;92.45;98027.27;102232;1306;22573;-51
2022/12/12 09:16:42;;;;;;;30.10;16.00;;;;;;;-0.47;92.37;98043.58;102273;1281;124714;-51
2022/12/12 09:19:10;;;;;;;28.50;17.20;;;;;;;-0.51;92.20;98045.69;106470;1310;22153;-52
2022/12/12 09:21:36;;;;;;;28.10;16.20;;;;;;;-0.53;92.12;98053.64;106667;1303;22113;-52
2022/12/12 09:24:03;;;;;;;177.10;81.20;;;;;;;-0.53;92.21;98056.20;106645;1302;138134;-51
2022/12/12 09:26:30;;;;;;;;;;;;;;;-0.51;92.09;98063.13;106696;1304;23617;-52
2022/12/12 09:28:57;;;;;;;43.30;21.10;;;;;;;-0.50;91.84;98063.48;106566;1303;125876;-52
2022/12/12 09:31:24;;;;;;;27.10;14.40;;;;;;;-0.52;91.48;98072.77;106735;1300;22188;-51
2022/12/12 09:33:51;;;;;;;24.90;14.30;;;;;;;-0.58;91.02;98082.18;106806;1302;22162;-52
2022/12/12 09:36:17;;;;;;;;;;;;;;;-0.60;91.32;98087.52;106655;1292;137422;-52
2022/12/12 09:38:44;;;;;;;24.10;14.70;;;;;;;-0.63;91.11;98084.33;106874;1300;22232;-51
2022/12/12 09:41:33;;;;;;;28.00;16.20;;;;;;;-0.65;91.21;98085.50;106805;1300;138487;-51
2022/12/12 09:44:11;;;;;;;28.00;17.10;;;;;;;-0.69;91.24;98082.37;106873;1287;22103;-52
2022/12/12 09:46:59;;;;;;;28.60;16.70;;;;;;;-0.66;91.25;98093.90;104149;1295;139085;-50
2022/12/12 09:49:41;;;;;;;28.00;16.60;;;;;;;-0.66;91.44;98105.79;106509;1309;22120;-51
2022/12/12 09:52:22;;;;;;;25.70;14.90;;;;;;;-0.66;91.17;98103.20;106806;1301;138837;-55
2022/12/12 09:54:58;;;;;;;34.60;18.30;;;;;;;-0.66;91.57;98108.47;106787;1303;22143;-52
2022/12/12 09:57:29;;;;;;;40.30;20.50;;;;;;;-0.63;91.41;98104.29;106759;1302;23184;-52
2022/12/12 10:00:03;;;;;;;33.10;17.90;;;;;;;-0.60;91.57;98102.13;106781;1300;138441;-52
2022/12/12 10:02:39;;;;;;;33.20;17.70;;;;;;;-0.58;91.67;98110.86;106937;1300;22141;-50
2022/12/12 14:51:01;;;;;;;25.00;15.60;;;;;;;-0.73;92.00;98314.37;99142;1333;557947;-60
2022/12/12 14:53:38;;;;;;;28.60;16.20;;;;;;;-0.56;91.54;98312.53;100751;1308;87485;-59
2022/12/12 14:56:13;;;;;;;22.60;14.40;;;;;;;-0.55;91.20;98313.70;100936;1298;25324;-60
2022/12/12 14:59:05;;;;;;;24.10;13.90;;;;;;;-0.53;90.94;98314.52;100944;1297;23330;-60
2022/12/12 15:01:46;;;;;;;23.20;13.40;;;;;;;-0.50;90.91;98323.89;100928;1297;24346;-60
2022/12/12 15:04:17;;;;;;;28.70;15.70;;;;;;;-0.51;90.34;98321.50;101000;1300;22582;-60
2022/12/12 15:06:48;;;;;;;22.70;13.70;;;;;;;-0.48;90.21;98326.19;100953;1308;25355;-60
2022/12/12 15:09:21;;;;;;;29.20;15.50;;;;;;;-0.48;89.99;98329.35;100939;1304;25248;-61
2022/12/12 15:11:49;;;;;;;33.40;17.80;;;;;;;-0.51;90.00;98332.88;101029;1308;22552;-61
2022/12/12 15:14:21;;;;;;;28.80;16.80;;;;;;;-0.50;89.48;98335.16;101017;1300;22506;-62
2022/12/12 15:17:27;;;;;;;56.90;29.40;;;;;;;-0.49;89.43;98333.64;101143;1298;22503;-60
2022/12/12 15:19:54;;;;;;;35.50;19.90;;;;;;;-0.47;89.60;98334.70;100424;1307;25317;-60
2022/12/12 15:22:37;;;;;;;29.20;14.40;;;;;;;-0.43;89.30;98345.36;104357;1331;138133;-61
2022/12/12 15:25:15;;;;;;;22.50;11.20;;;;;;;-0.39;89.03;98353.56;104803;1322;22302;-60
2022/12/12 15:27:43;;;;;;;18.90;10.80;;;;;;;-0.37;89.24;98357.34;104722;1323;138767;-60
2022/12/12 15:30:36;;;;;;;16.90;10.50;;;;;;;-0.36;88.90;98363.59;104820;1324;22189;-60
2022/12/12 15:33:13;;;;;;;21.00;12.60;;;;;;;-0.37;88.51;98366.11;104590;1321;138334;-60
2022/12/12 15:35:47;;;;;;;18.80;11.40;;;;;;;-0.39;88.10;98368.77;104690;1313;22345;-60
2022/12/12 15:38:14;;;;;;;21.20;12.90;;;;;;;-0.42;88.12;98375.15;104719;1316;138381;-59
2022/12/12 15:40:42;;;;;;;18.60;11.90;;;;;;;-0.43;87.79;98374.04;102176;1311;24078;-59
2022/12/12 15:43:17;;;;;;;18.70;11.60;;;;;;;-0.43;87.82;98374.18;100648;1328;25411;-59
2022/12/12 15:45:50;;;;;;;17.40;11.00;;;;;;;-0.45;87.48;98377.05;100550;1303;137967;-59
2022/12/12 15:48:17;;;;;;;20.00;11.20;;;;;;;-0.45;87.52;98381.65;105104;1312;22368;-59
2022/12/12 15:50:44;;;;;;;20.70;11.50;;;;;;;-0.43;87.63;98385.58;104985;1320;138568;-59
2022/12/12 15:53:15;;;;;;;20.20;11.60;;;;;;;-0.45;87.55;98384.15;105055;1306;22203;-60
2022/12/12 15:55:59;;;;;;;20.90;13.50;;;;;;;-0.43;87.53;98392.48;105924;1299;22239;-60
2022/12/12 15:58:28;;;;;;;42.70;22.80;;;;;;;-0.43;87.65;98389.23;106350;1296;137632;-60
2022/12/12 16:01:07;;;;;;;39.00;20.70;;;;;;;-0.42;87.64;98392.69;106422;1305;22142;-61
2022/12/12 16:03:54;;;;;;;31.10;17.20;;;;;;;-0.40;87.95;98395.34;106370;1291;137990;-61
2022/12/12 16:06:22;;;;;;;30.30;17.50;;;;;;;-0.37;87.91;98398.42;106521;1283;23000;-62
2022/12/12 16:08:59;;;;;;;30.10;18.40;;;;;;;-0.36;88.22;98399.42;106422;1288;138232;-61
2022/12/12 16:11:42;;;;;;;33.10;18.20;;;;;;;-0.31;88.27;98398.77;106485;1290;22171;-61
2022/12/12 16:14:33;;;;;;;33.60;18.60;;;;;;;-0.30;88.17;98410.30;106411;1305;137896;-60
2022/12/12 16:17:19;;;;;;;31.90;17.10;;;;;;;-0.29;88.10;98404.02;106549;1288;22152;-62
2022/12/12 16:19:57;;;;;;;25.90;15.40;;;;;;;-0.27;88.11;98404.31;106590;1305;22586;-61
2022/12/12 16:22:42;;;;;;;27.40;14.80;;;;;;;-0.25;88.17;98399.95;106427;1305;137916;-62
2022/12/12 16:25:22;;;;;;;35.50;19.30;;;;;;;-0.22;88.32;98407.05;106518;1297;22126;-61
2022/12/12 16:27:56;;;;;;;47.50;23.40;;;;;;;-0.21;88.13;98407.55;106490;1291;137424;-62
2022/12/12 16:30:23;;;;;;;52.60;24.80;;;;;;;-0.20;88.18;98403.02;106439;1304;22204;-62
2022/12/12 16:32:50;;;;;;;43.20;22.00;;;;;;;-0.20;88.11;98395.07;106411;1305;137643;-60
2022/12/12 16:35:19;;;;;;;60.50;26.70;;;;;;;-0.20;87.98;98400.17;104871;1303;25488;-60
2022/12/12 16:37:46;;;;;;;41.50;21.40;;;;;;;-0.21;87.79;98403.11;102140;1290;22551;-61